This is the latest recevied weather packets stored in our database for station/object N9UMJ-12. If no packets are shown the sender has not sent any weather packets the latest 10 day(s).
| Time | Temp. | Humidity | Pressure | Rain* | Wind** | Luminosity | Snow |
|---|---|---|---|---|---|---|---|
| 1777607119 | 6.67° C | 89% | 1015.9 hPa | 0 mm | - | 0 W/m² | - |
| 1777603517 | 8.33° C | 82% | 1016.3 hPa | 0 mm | - | 0 W/m² | - |
| 1777602317 | 8.89° C | 80% | 1016.1 hPa | 0 mm | - | 0 W/m² | - |
| 1777600538 | 9.44° C | 76% | 1016.1 hPa | 0 mm | - | 0 W/m² | - |
| 1777599318 | 9.44° C | 77% | 1015.9 hPa | 0 mm | - | 0 W/m² | - |
| 1777596359 | 11.11° C | 70% | 1015.6 hPa | 0 mm | - | 2 W/m² | - |
| 1777593919 | 13.89° C | 60% | 1015.4 hPa | 0 mm | - | 31 W/m² | - |
| 1777592117 | 16.67° C | 52% | 1015.6 hPa | 0 mm | - | 78 W/m² | - |
| 1777591537 | 17.22° C | 51% | 1015.6 hPa | 0 mm | - | 130 W/m² | - |
| 1777590920 | 17.22° C | 49% | 1015.6 hPa | 0 mm | - | 118 W/m² | - |
| 1777590318 | 16.67° C | 50% | 1015.7 hPa | 0 mm | - | 189 W/m² | - |
| 1777589719 | 16.11° C | 48% | 1015.8 hPa | 0 mm | - | 200 W/m² | - |
| 1777586159 | 16.11° C | 50% | 1015.8 hPa | 0 mm | - | 456 W/m² | - |
| 1777580138 | 16.11° C | 51% | 1017 hPa | 0 mm | - | 801 W/m² | - |
| 1777578918 | 16.11° C | 52% | 1017.1 hPa | 0 mm | - | 838 W/m² | - |
| 1777577739 | 15.56° C | 52% | 1017.3 hPa | 0 mm | - | 747 W/m² | - |
| 1777575919 | 15° C | 52% | 1017.5 hPa | 0 mm | - | 935 W/m² | - |
| 1777574119 | 14.44° C | 49% | 1017.5 hPa | 0 mm | - | 963 W/m² | - |
| 1777572317 | 14.44° C | 52% | 1017.8 hPa | 0 mm | - | 981 W/m² | - |
| 1777571117 | 14.44° C | 52% | 1018.1 hPa | 0 mm | - | 993 W/m² | - |
| 1777568118 | 13.33° C | 54% | 1018.6 hPa | 0 mm | - | 942 W/m² | - |
| 1777566918 | 12.78° C | 54% | 1018.4 hPa | 0 mm | - | 917 W/m² | - |
| 1777563319 | 11.67° C | 61% | 1018.7 hPa | 0 mm | - | 796 W/m² | - |
| 1777560917 | 10.56° C | 64% | 1018.8 hPa | 0 mm | - | 682 W/m² | - |
| 1777559720 | 10.56° C | 69% | 1018.8 hPa | 0 mm | - | 618 W/m² | - |
* Rain latest hour (hover to see other rain measurements)
** Current wind speed in m/s (hover to see current wind gust speed)